createdAt,value
2022-09-07T00:01:41.990Z,22.95
2022-09-07T00:06:43.539Z,22.68
2022-09-07T00:11:45.206Z,22.53
2022-09-07T00:16:46.722Z,22.37
2022-09-07T00:21:48.320Z,22.10
2022-09-07T00:26:49.910Z,21.99
2022-09-07T00:31:51.504Z,21.69
2022-09-07T00:36:53.062Z,21.52
2022-09-07T00:41:54.570Z,21.48
2022-09-07T00:46:56.350Z,21.27
2022-09-07T00:52:03.142Z,21.17
2022-09-07T00:57:05.494Z,21.05
2022-09-07T01:02:08.148Z,20.87
2022-09-07T01:07:09.906Z,21.10
2022-09-07T01:12:11.448Z,21.03
2022-09-07T01:17:41.969Z,20.68
2022-09-07T01:23:04.388Z,20.85
2022-09-07T01:28:22.716Z,20.68
2022-09-07T01:33:32.513Z,20.68
2022-09-07T01:38:36.784Z,20.43
2022-09-07T01:44:03.383Z,20.29
2022-09-07T01:49:17.574Z,20.40
2022-09-07T01:54:27.624Z,20.37
2022-09-07T01:59:45.935Z,20.28
2022-09-07T02:04:55.480Z,20.08
2022-09-07T02:10:10.692Z,20.16
2022-09-07T02:15:20.966Z,19.97
2022-09-07T02:20:31.451Z,20.22
2022-09-07T02:25:45.730Z,20.04
2022-09-07T02:30:47.479Z,19.90
2022-09-07T02:35:49.117Z,19.87
2022-09-07T02:40:55.174Z,19.73
2022-09-07T02:46:15.328Z,19.75
2022-09-07T02:51:22.692Z,19.74
2022-09-07T02:56:46.065Z,19.69
2022-09-07T03:01:59.619Z,19.64
2022-09-07T03:07:35.779Z,19.62
2022-09-07T03:12:46.063Z,19.56
2022-09-07T03:17:48.354Z,19.48
2022-09-07T03:22:51.665Z,19.32
2022-09-07T03:27:53.278Z,19.14
2022-09-07T03:32:54.761Z,19.18
2022-09-07T03:37:56.259Z,19.12
2022-09-07T03:42:57.686Z,19.13
2022-09-07T03:47:59.101Z,19.28
2022-09-07T03:53:00.589Z,19.09
2022-09-07T03:58:02.014Z,18.99
2022-09-07T04:03:03.520Z,19.00
2022-09-07T04:08:05.036Z,18.92
2022-09-07T04:13:07.296Z,18.87
2022-09-07T04:18:08.853Z,18.87
2022-09-07T04:23:10.402Z,18.96
2022-09-07T04:28:11.859Z,18.83
2022-09-07T04:33:14.486Z,18.77
2022-09-07T04:38:16.582Z,18.67
2022-09-07T04:43:18.095Z,18.78
2022-09-07T04:48:19.535Z,18.65
2022-09-07T04:53:20.965Z,18.67
2022-09-07T04:58:22.438Z,18.65
2022-09-07T05:03:23.897Z,18.55
2022-09-07T05:08:25.335Z,18.64
2022-09-07T05:13:28.972Z,18.60
2022-09-07T05:18:30.480Z,18.59
2022-09-07T05:23:31.929Z,18.59
2022-09-07T05:28:34.835Z,18.60
2022-09-07T05:38:59.193Z,18.62
2022-09-07T05:49:22.172Z,18.70
2022-09-07T05:54:23.722Z,18.66
2022-09-07T05:59:25.190Z,18.71
2022-09-07T06:04:26.615Z,18.75
2022-09-07T06:09:30.515Z,18.74
2022-09-07T06:14:33.558Z,18.79
2022-09-07T06:19:35.007Z,18.84
2022-09-07T06:24:36.432Z,18.87
2022-09-07T06:29:37.883Z,18.95
2022-09-07T06:34:39.316Z,19.02
2022-09-07T06:39:40.875Z,19.16
2022-09-07T06:44:42.396Z,19.28
2022-09-07T06:49:43.828Z,19.57
2022-09-07T06:55:00.990Z,19.82
2022-09-07T07:00:03.378Z,20.07
2022-09-07T07:05:05.151Z,20.21
2022-09-07T07:10:06.993Z,20.21
2022-09-07T07:15:09.014Z,20.56
2022-09-07T07:20:10.662Z,20.39
2022-09-07T07:25:12.115Z,20.72
2022-09-07T07:30:17.729Z,20.85
2022-09-07T07:35:19.210Z,20.86
2022-09-07T07:40:23.551Z,21.07
2022-09-07T07:50:58.574Z,21.12
2022-09-07T07:56:00.868Z,21.15
2022-09-07T08:01:05.297Z,21.17
2022-09-07T08:06:09.041Z,21.09
2022-09-07T08:11:13.064Z,21.09
2022-09-07T08:16:15.097Z,21.11
2022-09-07T08:21:16.881Z,21.09
2022-09-07T08:26:18.233Z,21.04
2022-09-07T08:31:19.630Z,20.91
2022-09-07T08:36:21.529Z,20.81
2022-09-07T08:41:31.942Z,20.79
2022-09-07T08:46:38.613Z,20.72
2022-09-07T08:51:47.461Z,20.71
2022-09-07T09:06:10.831Z,20.55
2022-09-07T09:07:52.609Z,20.61
2022-09-07T09:13:09.454Z,20.63
2022-09-07T09:18:35.089Z,20.66
2022-09-07T09:23:44.608Z,20.51
2022-09-07T09:28:45.969Z,20.65
2022-09-07T09:34:05.706Z,20.69
2022-09-07T09:39:37.106Z,20.73
2022-09-07T09:44:39.463Z,20.79
2022-09-07T09:49:40.959Z,20.98
2022-09-07T09:54:44.657Z,21.11
2022-09-07T10:00:05.547Z,21.21
2022-09-07T10:05:30.243Z,21.33
2022-09-07T10:10:32.153Z,21.49
2022-09-07T10:15:40.522Z,21.62
2022-09-07T10:20:42.552Z,21.84
2022-09-07T10:25:47.468Z,21.87
2022-09-07T10:31:00.975Z,22.01
2022-09-07T10:36:23.658Z,21.98
2022-09-07T10:41:46.864Z,22.09
2022-09-07T10:47:09.304Z,22.04
2022-09-07T10:52:38.722Z,22.03
2022-09-07T10:57:58.031Z,22.17
2022-09-07T11:03:40.891Z,22.30
2022-09-07T11:09:21.068Z,22.43
2022-09-07T11:14:25.411Z,22.54
2022-09-07T11:19:37.882Z,22.58
2022-09-07T11:30:27.266Z,22.71
2022-09-07T11:35:44.720Z,22.92
2022-09-07T11:40:58.515Z,22.96
2022-09-07T11:46:24.872Z,23.15
2022-09-07T11:51:53.638Z,23.25
2022-09-07T11:57:36.959Z,23.38
2022-09-07T12:03:02.780Z,23.48
2022-09-07T12:08:17.778Z,23.52
2022-09-07T12:13:42.395Z,23.48
2022-09-07T12:18:43.695Z,23.58
2022-09-07T12:23:46.359Z,23.48
2022-09-07T12:28:50.721Z,23.56
2022-09-07T12:34:38.263Z,23.60
2022-09-07T12:39:43.802Z,23.81
2022-09-07T12:44:45.685Z,23.90
2022-09-07T12:50:10.126Z,23.94
2022-09-07T12:55:28.121Z,23.95
2022-09-07T13:00:50.877Z,23.99
2022-09-07T13:06:07.324Z,24.06
2022-09-07T13:11:20.767Z,24.11
2022-09-07T13:22:30.164Z,24.16
2022-09-07T13:27:43.518Z,24.28
2022-09-07T13:38:13.842Z,24.50
2022-09-07T13:43:19.634Z,24.40
2022-09-07T13:48:36.001Z,24.45
2022-09-07T13:53:55.938Z,24.46
2022-09-07T13:58:57.433Z,24.71
2022-09-07T14:04:06.508Z,24.62
2022-09-07T14:09:22.199Z,24.65
2022-09-07T14:14:26.718Z,24.72
2022-09-07T14:19:39.620Z,24.67
2022-09-07T14:24:54.708Z,24.61
2022-09-07T14:29:56.086Z,24.75
2022-09-07T14:34:58.157Z,24.65
2022-09-07T14:40:00.723Z,24.73
2022-09-07T14:45:20.904Z,24.70
2022-09-07T14:50:34.731Z,24.69
2022-09-07T14:55:42.468Z,24.71
2022-09-07T15:00:46.290Z,24.86
2022-09-07T15:05:48.796Z,24.88
2022-09-07T15:16:34.999Z,24.93
2022-09-07T15:21:39.753Z,24.87
2022-09-07T15:32:09.322Z,24.71
2022-09-07T15:47:53.809Z,24.77
2022-09-07T15:52:55.393Z,24.54
2022-09-07T15:58:10.568Z,24.69
2022-09-07T16:03:12.512Z,24.78
2022-09-07T16:13:35.925Z,24.68
2022-09-07T16:18:39.113Z,24.66
2022-09-07T16:23:44.492Z,24.57
2022-09-07T16:28:48.634Z,24.65
2022-09-07T16:33:50.459Z,24.51
2022-09-07T16:39:01.630Z,24.55
2022-09-07T16:44:03.241Z,24.55
2022-09-07T16:49:06.950Z,24.47
2022-09-07T16:54:11.667Z,24.52
2022-09-07T16:59:20.037Z,24.49
2022-09-07T17:04:21.551Z,24.46
2022-09-07T17:09:26.644Z,24.41
2022-09-07T17:14:28.661Z,24.33
2022-09-07T17:19:30.462Z,24.17
2022-09-07T17:24:32.554Z,24.15
2022-09-07T17:29:37.029Z,24.11
2022-09-07T17:34:38.853Z,24.06
2022-09-07T17:39:40.256Z,23.98
2022-09-07T17:44:41.835Z,23.94
2022-09-07T17:49:43.262Z,23.90
2022-09-07T17:54:44.643Z,23.72
2022-09-07T18:05:07.753Z,23.61
2022-09-07T18:10:09.467Z,23.49
2022-09-07T18:15:11.054Z,23.46
2022-09-07T18:20:12.443Z,23.35
2022-09-07T18:25:13.878Z,23.27
2022-09-07T18:30:15.789Z,23.12
2022-09-07T18:35:17.219Z,22.96
2022-09-07T18:40:21.568Z,22.81
2022-09-07T18:45:30.449Z,22.58
2022-09-07T18:50:32.687Z,22.45
2022-09-07T18:55:34.169Z,22.46
2022-09-07T19:00:35.705Z,22.49
2022-09-07T19:05:53.238Z,22.12
2022-09-07T19:10:54.832Z,22.01
2022-09-07T19:16:06.380Z,22.00
2022-09-07T19:21:13.504Z,21.98
2022-09-07T19:26:17.618Z,21.77
2022-09-07T19:31:19.465Z,21.44
2022-09-07T19:36:21.121Z,21.48
2022-09-07T19:41:22.923Z,21.43
2022-09-07T19:46:25.118Z,21.20
2022-09-07T19:51:26.580Z,21.02
2022-09-07T19:56:28.095Z,21.33
2022-09-07T20:01:29.707Z,21.24
2022-09-07T20:06:32.755Z,21.07
2022-09-07T20:11:35.368Z,21.08
2022-09-07T20:16:38.445Z,21.04
2022-09-07T20:21:40.007Z,20.72
2022-09-07T20:26:41.621Z,20.75
2022-09-07T20:31:43.947Z,20.82
2022-09-07T20:36:45.336Z,20.75
2022-09-07T20:41:47.273Z,20.52
2022-09-07T20:46:48.799Z,20.34
2022-09-07T20:51:50.599Z,20.47
2022-09-07T20:56:51.931Z,20.37
2022-09-07T21:01:53.326Z,20.41
2022-09-07T21:06:54.703Z,20.06
2022-09-07T21:11:57.225Z,19.98
2022-09-07T21:16:58.687Z,19.86
2022-09-07T21:22:00.039Z,19.95
2022-09-07T21:27:01.441Z,19.98
2022-09-07T21:32:03.186Z,19.99
2022-09-07T21:37:04.542Z,19.84
2022-09-07T21:42:05.995Z,19.75
2022-09-07T21:47:07.441Z,19.71
2022-09-07T21:52:08.836Z,19.68
2022-09-07T21:57:10.667Z,19.67
2022-09-07T22:02:12.149Z,19.61
2022-09-07T22:07:13.561Z,19.53
2022-09-07T22:12:14.925Z,19.55
2022-09-07T22:17:16.977Z,19.49
2022-09-07T22:22:18.405Z,19.56
2022-09-07T22:27:19.776Z,19.51
2022-09-07T22:32:21.151Z,19.47
2022-09-07T22:37:22.631Z,19.34
2022-09-07T22:42:24.509Z,19.31
2022-09-07T22:47:25.995Z,19.11
2022-09-07T22:52:27.359Z,19.00
2022-09-07T22:57:28.726Z,19.18
2022-09-07T23:02:30.166Z,19.23
2022-09-07T23:07:31.494Z,19.22
2022-09-07T23:12:33.026Z,19.22
2022-09-07T23:17:34.367Z,19.14
2022-09-07T23:22:35.943Z,19.26
2022-09-07T23:27:37.321Z,19.23
2022-09-07T23:32:38.687Z,19.33
2022-09-07T23:37:40.045Z,19.30
2022-09-07T23:42:41.385Z,19.26
2022-09-07T23:47:42.727Z,19.35
2022-09-07T23:52:44.195Z,19.40
2022-09-07T23:57:45.519Z,19.40
